Time;durP1;ratioP1;P1;durP2;ratioP2;P2;SDS_P1;SDS_P2;PMS_P1;PMS_P2;Temp;Humidity;BMP_temperature;BMP_pressure;BME280_temperature;BME280_humidity;BME280_pressure;Samples;Min_cycle;Max_cycle;Signal;HPM_P1;HPM_P2
2023/01/18 00:00:19;;;;;;;1.60;1.60;;;16.80;65.30;;;;;;5101854;27;43387;-71
2023/01/18 00:02:48;;;;;;;1.97;1.93;;;16.80;65.20;;;;;;5084933;27;43943;-70
2023/01/18 00:05:16;;;;;;;2.13;2.13;;;16.80;65.20;;;;;;5100119;27;43928;-70
2023/01/18 00:07:44;;;;;;;2.00;2.00;;;16.80;65.20;;;;;;5098494;27;44102;-71
2023/01/18 00:10:12;;;;;;;2.10;2.10;;;16.80;65.30;;;;;;5098140;27;43348;-72
2023/01/18 00:12:40;;;;;;;1.83;1.83;;;16.80;65.60;;;;;;5102727;27;43818;-71
2023/01/18 00:15:09;;;;;;;1.87;1.87;;;16.80;65.50;;;;;;5099968;27;43847;-70
2023/01/18 00:17:46;;;;;;;1.83;1.83;;;16.90;65.20;;;;;;5105019;27;43904;-70
2023/01/18 00:20:16;;;;;;;1.70;1.70;;;17.00;64.80;;;;;;5080377;27;43487;-72
2023/01/18 00:22:44;;;;;;;1.77;1.77;;;17.00;64.50;;;;;;5105240;27;43610;-72
2023/01/18 00:25:12;;;;;;;1.80;1.80;;;17.00;64.50;;;;;;5101702;27;43899;-71
2023/01/18 00:27:40;;;;;;;1.73;1.73;;;17.00;64.80;;;;;;5102873;27;43418;-70
2023/01/18 00:30:09;;;;;;;1.80;1.80;;;17.00;64.80;;;;;;5102198;27;43846;-70
2023/01/18 00:32:37;;;;;;;1.83;1.83;;;16.90;64.70;;;;;;5101486;27;44087;-72
2023/01/18 00:35:07;;;;;;;1.83;1.77;;;16.90;64.80;;;;;;5098508;27;43662;-70
2023/01/18 00:37:36;;;;;;;1.97;1.97;;;16.90;64.80;;;;;;5103554;27;43497;-70
2023/01/18 00:40:05;;;;;;;1.70;1.70;;;16.90;65.00;;;;;;5098156;27;43686;-71
2023/01/18 00:45:18;;;;;;;1.83;1.83;;;16.80;65.10;;;;;;5101491;27;44166;-70
2023/01/18 00:47:46;;;;;;;1.80;1.80;;;16.80;65.00;;;;;;5086217;27;44784;-71
2023/01/18 00:50:14;;;;;;;1.77;1.77;;;16.80;65.10;;;;;;5101010;27;43374;-72
2023/01/18 00:52:46;;;;;;;1.77;1.77;;;16.80;65.20;;;;;;5079470;27;43519;-70
2023/01/18 00:55:14;;;;;;;1.70;1.70;;;16.80;65.30;;;;;;5099313;27;43945;-72
2023/01/18 00:57:43;;;;;;;1.77;1.77;;;16.70;65.20;;;;;;5099681;27;43455;-73
2023/01/18 01:00:14;;;;;;;1.83;1.83;;;16.70;65.30;;;;;;5101966;27;43422;-71
2023/01/18 01:02:42;;;;;;;1.73;1.73;;;16.80;65.40;;;;;;5102758;27;43414;-71
2023/01/18 01:08:02;;;;;;;1.80;1.80;;;16.80;65.70;;;;;;5099337;27;43344;-71
2023/01/18 01:10:30;;;;;;;1.70;1.70;;;16.80;66.10;;;;;;5103941;27;44468;-71
2023/01/18 01:26:47;;;;;;;1.90;1.90;;;17.80;62.60;;;;;;5098336;27;43932;-71
2023/01/18 01:29:15;;;;;;;1.70;1.70;;;17.90;62.20;;;;;;5103538;27;43530;-71
2023/01/18 01:31:43;;;;;;;1.60;1.60;;;18.00;61.90;;;;;;5098106;27;43971;-71
2023/01/18 01:34:11;;;;;;;1.50;1.50;;;18.10;61.70;;;;;;5103844;27;43905;-70
2023/01/18 01:36:39;;;;;;;1.47;1.47;;;18.10;61.90;;;;;;5078222;27;45754;-72
2023/01/18 01:39:09;;;;;;;1.70;1.70;;;17.90;61.90;;;;;;5101020;27;43501;-70
2023/01/18 01:41:37;;;;;;;1.67;1.67;;;17.80;62.20;;;;;;5091335;27;43385;-72
2023/01/18 01:44:39;;;;;;;1.57;1.57;;;17.60;62.60;;;;;;5082693;28;43597;-72
2023/01/18 01:47:09;;;;;;;1.53;1.53;;;17.50;63.40;;;;;;5095832;27;43873;-72
2023/01/18 01:49:38;;;;;;;1.80;1.80;;;17.40;63.30;;;;;;5098540;27;43988;-71
2023/01/18 01:52:07;;;;;;;1.47;1.47;;;17.30;63.50;;;;;;5103448;27;43488;-71
2023/01/18 01:54:38;;;;;;;1.60;1.60;;;17.20;63.60;;;;;;5098264;27;44124;-72
2023/01/18 01:57:09;;;;;;;1.57;1.57;;;17.20;64.00;;;;;;5078871;27;46423;-71
2023/01/18 01:59:39;;;;;;;1.60;1.60;;;17.10;64.30;;;;;;5095086;27;43426;-71
2023/01/18 02:02:07;;;;;;;1.60;1.60;;;17.10;64.50;;;;;;5084372;27;43312;-75
2023/01/18 02:04:35;;;;;;;1.40;1.40;;;17.00;64.30;;;;;;5081384;27;43475;-75
2023/01/18 02:07:03;;;;;;;1.33;1.33;;;17.00;64.40;;;;;;5101555;27;43872;-74
2023/01/18 02:09:30;;;;;;;1.60;1.60;;;17.00;64.50;;;;;;5084651;27;44673;-73
2023/01/18 02:12:01;;;;;;;1.50;1.50;;;16.90;64.50;;;;;;5078173;27;43442;-74
2023/01/18 02:14:29;;;;;;;1.70;1.70;;;16.90;64.90;;;;;;5082230;27;43556;-74
2023/01/18 02:17:07;;;;;;;1.50;1.50;;;16.90;65.90;;;;;;5085623;27;46143;-73
2023/01/18 02:19:57;;;;;;;1.40;1.40;;;17.00;65.10;;;;;;5095652;27;43431;-74
2023/01/18 02:22:33;;;;;;;1.40;1.40;;;17.10;64.60;;;;;;5074256;27;43435;-75
2023/01/18 02:25:17;;;;;;;1.60;1.60;;;17.10;64.20;;;;;;5106422;27;43375;-74
2023/01/18 02:27:49;;;;;;;1.60;1.60;;;17.10;64.20;;;;;;5104127;27;43776;-75
2023/01/18 02:30:22;;;;;;;1.57;1.53;;;17.00;64.60;;;;;;5104413;27;43414;-75
2023/01/18 02:33:01;;;;;;;1.40;1.40;;;17.00;64.50;;;;;;5076282;27;44338;-74
2023/01/18 02:35:42;;;;;;;1.60;1.60;;;17.00;64.50;;;;;;5074360;27;43642;-74
2023/01/18 02:38:11;;;;;;;1.40;1.40;;;17.00;64.50;;;;;;5080834;27;45528;-72
2023/01/18 02:40:46;;;;;;;1.30;1.30;;;16.90;64.50;;;;;;5092109;27;43900;-73
2023/01/18 02:48:46;;;;;;;1.47;1.47;;;16.90;64.90;;;;;;5094799;27;43612;-75
2023/01/18 02:51:14;;;;;;;1.30;1.30;;;16.90;64.80;;;;;;5106441;27;43449;-75
2023/01/18 02:53:43;;;;;;;1.30;1.30;;;16.90;64.80;;;;;;5105135;27;43412;-74
2023/01/18 02:56:12;;;;;;;1.33;1.33;;;16.80;64.80;;;;;;5082863;27;43506;-74
2023/01/18 02:58:42;;;;;;;1.57;1.57;;;16.80;65.00;;;;;;5101897;27;43958;-75
2023/01/18 03:01:14;;;;;;;1.30;1.30;;;16.80;65.30;;;;;;5107914;27;43370;-74
2023/01/18 03:03:43;;;;;;;1.40;1.40;;;16.80;65.30;;;;;;5107286;27;43401;-75
2023/01/18 03:06:11;;;;;;;1.50;1.50;;;16.90;65.00;;;;;;5086958;27;43495;-74
2023/01/18 03:08:40;;;;;;;1.40;1.40;;;17.00;64.50;;;;;;5100251;27;43645;-73
2023/01/18 03:11:11;;;;;;;1.60;1.60;;;17.00;64.50;;;;;;5100599;27;43462;-74
2023/01/18 03:13:48;;;;;;;1.60;1.60;;;17.00;64.40;;;;;;5084381;27;43896;-75
2023/01/18 03:16:19;;;;;;;1.60;1.60;;;16.90;64.80;;;;;;5098404;27;44057;-75
2023/01/18 03:19:00;;;;;;;1.53;1.40;;;16.90;64.60;;;;;;5083769;27;45881;-73
2023/01/18 03:21:36;;;;;;;1.40;1.40;;;16.90;64.70;;;;;;5103166;27;43411;-74
2023/01/18 03:24:05;;;;;;;1.30;1.30;;;16.90;64.70;;;;;;5089036;27;43487;-73
2023/01/18 03:26:35;;;;;;;1.67;1.67;;;16.80;64.60;;;;;;5096402;27;43995;-75
2023/01/18 03:34:38;;;;;;;1.57;1.57;;;16.80;64.90;;;;;;5087840;27;43436;-75
2023/01/18 03:37:08;;;;;;;1.40;1.40;;;16.80;64.90;;;;;;5101202;27;43458;-74
2023/01/18 03:39:39;;;;;;;1.50;1.50;;;16.80;65.00;;;;;;5103413;27;43608;-74
2023/01/18 03:42:09;;;;;;;1.50;1.50;;;16.80;65.10;;;;;;5087345;27;43484;-74
2023/01/18 03:44:38;;;;;;;1.10;1.10;;;16.80;65.00;;;;;;5104727;27;43413;-73
2023/01/18 03:47:07;;;;;;;1.30;1.30;;;16.80;65.40;;;;;;5088946;27;43458;-75
2023/01/18 03:49:35;;;;;;;1.47;1.47;;;16.80;65.30;;;;;;5085954;27;46065;-74
2023/01/18 03:52:09;;;;;;;1.23;1.23;;;16.90;65.00;;;;;;5097980;27;43820;-74
2023/01/18 03:54:40;;;;;;;1.57;1.47;;;17.00;64.50;;;;;;5107743;27;43355;-71
2023/01/18 03:57:09;;;;;;;1.50;1.50;;;17.00;64.30;;;;;;5078935;27;43490;-73
2023/01/18 03:59:38;;;;;;;1.43;1.43;;;17.00;64.30;;;;;;5085324;27;46114;-72
2023/01/18 04:02:07;;;;;;;1.47;1.47;;;16.90;64.50;;;;;;5102730;27;43456;-75
2023/01/18 04:04:35;;;;;;;1.50;1.50;;;16.90;64.60;;;;;;5100088;27;43461;-75
2023/01/18 04:07:03;;;;;;;1.30;1.30;;;16.90;65.20;;;;;;5082908;27;43495;-75
2023/01/18 04:09:31;;;;;;;1.10;1.10;;;16.90;64.50;;;;;;5081163;27;45368;-74
2023/01/18 04:11:59;;;;;;;1.40;1.40;;;16.90;64.60;;;;;;5104155;27;43540;-74
2023/01/18 04:14:27;;;;;;;1.37;1.37;;;16.80;64.60;;;;;;5072605;28;43494;-73
2023/01/18 04:16:55;;;;;;;1.30;1.30;;;16.80;64.70;;;;;;5101741;27;43486;-73
2023/01/18 04:19:24;;;;;;;1.23;1.23;;;16.80;64.90;;;;;;5095416;27;43657;-75
2023/01/18 04:21:52;;;;;;;1.20;1.20;;;16.80;64.80;;;;;;5081643;27;44748;-74
2023/01/18 04:24:20;;;;;;;1.20;1.20;;;16.80;64.80;;;;;;5082120;27;43565;-75
2023/01/18 04:26:48;;;;;;;1.30;1.30;;;16.80;64.90;;;;;;5085179;27;43509;-75
2023/01/18 04:29:16;;;;;;;1.47;1.47;;;16.80;64.90;;;;;;5081689;27;45808;-75
2023/01/18 04:31:43;;;;;;;1.60;1.60;;;16.80;65.00;;;;;;5103631;27;43402;-73
2023/01/18 04:34:11;;;;;;;1.63;1.60;;;16.80;65.10;;;;;;5103924;27;43477;-75
2023/01/18 04:36:41;;;;;;;1.30;1.30;;;16.80;64.90;;;;;;5101551;27;43979;-74
2023/01/18 04:39:10;;;;;;;1.40;1.40;;;16.80;65.00;;;;;;5106292;27;43899;-75
2023/01/18 04:41:38;;;;;;;1.30;1.30;;;16.80;64.90;;;;;;5082706;27;44411;-72
2023/01/18 04:44:06;;;;;;;1.20;1.20;;;16.80;65.00;;;;;;5098001;27;43386;-74
2023/01/18 04:46:36;;;;;;;1.37;1.30;;;16.80;64.90;;;;;;5104330;27;43424;-74
2023/01/18 04:49:04;;;;;;;1.47;1.20;;;16.80;65.20;;;;;;5086701;27;46514;-74
2023/01/18 04:51:32;;;;;;;1.20;1.20;;;16.80;65.20;;;;;;5099239;27;43956;-74
2023/01/18 04:54:02;;;;;;;1.30;1.30;;;16.90;65.00;;;;;;5094317;27;43446;-74
2023/01/18 04:56:29;;;;;;;1.23;1.23;;;17.00;64.50;;;;;;5100525;27;44011;-75
2023/01/18 04:58:57;;;;;;;1.40;1.40;;;17.00;64.10;;;;;;5100615;27;43922;-74
2023/01/18 05:01:25;;;;;;;1.30;1.30;;;17.00;64.30;;;;;;5080158;27;44564;-74
2023/01/18 05:03:53;;;;;;;1.73;1.63;;;16.90;64.40;;;;;;5091606;27;43662;-75
2023/01/18 05:06:22;;;;;;;1.87;1.77;;;16.90;64.60;;;;;;5105957;27;43431;-74
2023/01/18 05:08:50;;;;;;;1.70;1.60;;;16.90;64.50;;;;;;5104397;27;43896;-74
2023/01/18 05:11:21;;;;;;;2.30;1.83;;;16.90;64.40;;;;;;5074426;27;43490;-75
2023/01/18 05:13:49;;;;;;;1.97;1.87;;;16.80;64.50;;;;;;5099211;27;43377;-74
2023/01/18 05:16:18;;;;;;;2.10;1.93;;;16.80;64.60;;;;;;5103647;27;43544;-74
2023/01/18 05:18:47;;;;;;;2.30;2.20;;;16.80;64.60;;;;;;5087748;27;46236;-76
2023/01/18 05:21:15;;;;;;;3.23;2.20;;;16.80;65.00;;;;;;5077800;28;45099;-74
2023/01/18 05:23:43;;;;;;;2.27;2.07;;;16.80;64.70;;;;;;5102756;27;43379;-74
2023/01/18 05:26:14;;;;;;;2.57;2.33;;;16.80;64.80;;;;;;5078270;28;43992;-75
2023/01/18 05:28:43;;;;;;;4.10;2.50;;;16.80;64.80;;;;;;5103990;27;43835;-73
2023/01/18 05:31:11;;;;;;;2.63;2.43;;;16.80;64.70;;;;;;5087268;27;43499;-74
2023/01/18 05:33:39;;;;;;;5.30;2.83;;;16.80;64.90;;;;;;5089864;27;43539;-74
2023/01/18 05:36:07;;;;;;;3.90;3.10;;;16.80;65.00;;;;;;5091815;27;43464;-72
2023/01/18 05:38:35;;;;;;;6.10;2.83;;;16.80;64.70;;;;;;5091230;27;43846;-75
2023/01/18 05:41:03;;;;;;;3.33;2.80;;;16.80;64.70;;;;;;5068724;28;44987;-74
2023/01/18 05:43:31;;;;;;;3.47;2.73;;;16.80;64.60;;;;;;5086844;27;43383;-75
2023/01/18 05:46:03;;;;;;;3.10;2.90;;;16.80;64.70;;;;;;5095764;27;43489;-74
2023/01/18 05:48:31;;;;;;;4.07;2.93;;;16.80;64.60;;;;;;5089091;27;43661;-73
2023/01/18 05:50:59;;;;;;;4.27;2.90;;;16.80;64.80;;;;;;5095333;27;43449;-75
2023/01/18 05:53:27;;;;;;;4.00;3.23;;;16.80;65.00;;;;;;5095681;27;43402;-74
2023/01/18 05:55:56;;;;;;;4.70;3.20;;;16.90;64.50;;;;;;5082527;27;43819;-75
2023/01/18 05:58:24;;;;;;;6.37;3.13;;;16.90;62.50;;;;;;5100435;27;43911;-74
2023/01/18 06:00:52;;;;;;;4.33;2.80;;;17.00;63.30;;;;;;5100736;27;43535;-74
2023/01/18 06:03:21;;;;;;;2.80;2.60;;;17.00;63.20;;;;;;5082468;27;43977;-74
2023/01/18 06:05:50;;;;;;;3.97;3.03;;;17.00;63.40;;;;;;5076534;27;44167;-71
2023/01/18 06:08:18;;;;;;;3.23;2.93;;;16.90;63.60;;;;;;5080267;27;46985;-75
2023/01/18 06:10:52;;;;;;;4.97;3.03;;;16.90;63.50;;;;;;5081970;27;44812;-74
2023/01/18 06:13:20;;;;;;;2.87;2.67;;;16.90;63.60;;;;;;5094616;27;43456;-75
2023/01/18 06:15:48;;;;;;;3.00;2.80;;;16.90;63.70;;;;;;5098844;27;43422;-74
2023/01/18 06:18:16;;;;;;;3.10;2.80;;;16.90;63.90;;;;;;5092528;27;43928;-74
2023/01/18 06:20:45;;;;;;;3.03;2.70;;;16.80;63.80;;;;;;5103452;27;43522;-73
2023/01/18 06:23:14;;;;;;;3.33;2.90;;;16.90;64.20;;;;;;5100489;27;43425;-75
2023/01/18 06:25:42;;;;;;;4.90;3.10;;;16.80;64.10;;;;;;5098501;27;43453;-75
2023/01/18 06:28:10;;;;;;;3.47;2.97;;;16.80;64.10;;;;;;5098619;27;43909;-73
2023/01/18 06:30:38;;;;;;;3.20;2.90;;;16.80;64.10;;;;;;5102567;27;43460;-72
2023/01/18 06:33:06;;;;;;;3.30;3.00;;;16.80;64.20;;;;;;5101776;27;43985;-74
2023/01/18 06:35:34;;;;;;;5.33;2.63;;;16.80;64.20;;;;;;5105519;27;43454;-75
2023/01/18 06:38:04;;;;;;;6.20;3.03;;;16.80;64.30;;;;;;5096359;27;43915;-74
2023/01/18 06:40:32;;;;;;;3.33;2.90;;;16.80;64.60;;;;;;5087967;27;43552;-74
2023/01/18 06:43:00;;;;;;;3.00;2.80;;;16.80;64.60;;;;;;5100645;27;43418;-75
2023/01/18 06:45:28;;;;;;;3.00;2.70;;;16.90;64.30;;;;;;5077799;27;43569;-75
2023/01/18 06:47:56;;;;;;;3.53;3.13;;;16.90;63.80;;;;;;5103220;27;43806;-74
2023/01/18 06:50:24;;;;;;;2.90;2.70;;;16.90;63.80;;;;;;5097675;27;43949;-74
2023/01/18 06:52:54;;;;;;;3.20;2.90;;;16.90;63.80;;;;;;5079770;27;43423;-73
2023/01/18 06:55:24;;;;;;;2.70;2.50;;;16.90;64.10;;;;;;5096066;27;43915;-74
2023/01/18 06:57:53;;;;;;;3.07;2.87;;;16.90;64.00;;;;;;5079722;27;46051;-74
2023/01/18 07:00:23;;;;;;;3.07;2.70;;;16.90;64.00;;;;;;5102851;27;44110;-74
2023/01/18 07:02:51;;;;;;;3.30;2.73;;;16.80;64.00;;;;;;5096260;27;43896;-75
2023/01/18 07:05:19;;;;;;;2.57;2.40;;;16.80;64.00;;;;;;5097482;27;43443;-75
2023/01/18 07:07:47;;;;;;;2.93;2.73;;;16.80;64.10;;;;;;5095610;27;44023;-74
2023/01/18 07:10:16;;;;;;;2.70;2.50;;;16.80;64.20;;;;;;5101183;27;43466;-73
2023/01/18 07:12:47;;;;;;;3.27;2.67;;;16.80;64.50;;;;;;5104783;27;43931;-75
2023/01/18 07:15:16;;;;;;;2.70;2.47;;;16.80;64.30;;;;;;5106414;27;43316;-74
2023/01/18 07:17:50;;;;;;;2.70;2.50;;;16.80;64.30;;;;;;5102825;27;43897;-74
2023/01/18 07:20:18;;;;;;;2.80;2.70;;;16.80;64.30;;;;;;5079174;27;45008;-73
2023/01/18 07:22:50;;;;;;;2.77;2.57;;;16.80;65.10;;;;;;5098760;27;43434;-73
2023/01/18 07:25:19;;;;;;;3.10;2.77;;;16.70;64.20;;;;;;5103297;27;43736;-73
2023/01/18 07:27:48;;;;;;;2.70;2.50;;;16.70;64.50;;;;;;5088661;27;44073;-75
2023/01/18 07:30:17;;;;;;;4.00;2.70;;;16.80;64.80;;;;;;5080435;27;44316;-75
2023/01/18 07:32:47;;;;;;;2.90;2.60;;;16.80;64.30;;;;;;5086212;27;43385;-75
2023/01/18 07:35:16;;;;;;;3.23;2.80;;;16.90;64.00;;;;;;5101867;27;43470;-74
2023/01/18 07:37:47;;;;;;;2.67;2.50;;;16.90;63.90;;;;;;5076713;27;45292;-75
2023/01/18 07:40:16;;;;;;;3.27;2.97;;;16.90;63.90;;;;;;5075852;28;44419;-74
2023/01/18 07:42:44;;;;;;;2.70;2.50;;;16.80;64.00;;;;;;5073452;27;43793;-74
2023/01/18 07:45:13;;;;;;;4.10;2.80;;;16.80;64.10;;;;;;5097590;27;43991;-72
2023/01/18 07:47:42;;;;;;;2.70;2.50;;;16.80;64.10;;;;;;5073044;27;45704;-75
2023/01/18 07:50:11;;;;;;;2.83;2.63;;;16.80;64.00;;;;;;5100971;27;43504;-73
2023/01/18 07:52:39;;;;;;;2.97;2.67;;;16.80;64.10;;;;;;5106065;27;43307;-75
2023/01/18 07:55:08;;;;;;;2.67;2.47;;;16.80;64.10;;;;;;5100632;27;43430;-74
2023/01/18 07:57:36;;;;;;;2.90;2.70;;;16.80;64.30;;;;;;5087334;27;45952;-74
2023/01/18 08:00:06;;;;;;;2.70;2.50;;;16.70;64.40;;;;;;5101133;27;43984;-75
2023/01/18 08:02:40;;;;;;;2.73;2.63;;;16.70;64.30;;;;;;5101909;27;43894;-75
2023/01/18 08:05:10;;;;;;;2.83;2.63;;;16.80;64.40;;;;;;5098843;27;43415;-75
2023/01/18 08:07:38;;;;;;;3.20;2.90;;;16.80;64.30;;;;;;5102583;27;44031;-73
2023/01/18 08:10:06;;;;;;;2.77;2.60;;;16.70;64.30;;;;;;5087295;27;44610;-75
2023/01/18 08:12:34;;;;;;;2.40;2.20;;;16.70;64.30;;;;;;5102859;27;43411;-75
2023/01/18 08:15:03;;;;;;;2.87;2.67;;;16.70;64.50;;;;;;5103278;27;43335;-75
2023/01/18 08:17:31;;;;;;;2.40;2.30;;;16.70;64.70;;;;;;5100540;27;43927;-74
2023/01/18 08:20:00;;;;;;;2.70;2.50;;;16.80;64.70;;;;;;5100996;27;43454;-73
2023/01/18 08:22:28;;;;;;;2.73;2.50;;;16.90;64.30;;;;;;5086104;27;43443;-73
2023/01/18 08:24:56;;;;;;;3.07;2.67;;;16.90;63.80;;;;;;5105052;27;43428;-73
2023/01/18 08:27:24;;;;;;;2.40;2.30;;;16.90;63.70;;;;;;5099087;27;43951;-74
2023/01/18 08:29:54;;;;;;;3.00;2.70;;;16.90;63.70;;;;;;5100465;27;43453;-75
2023/01/18 08:32:22;;;;;;;2.60;2.47;;;16.90;64.10;;;;;;5081772;27;43384;-73
2023/01/18 08:34:50;;;;;;;2.40;2.30;;;16.80;63.90;;;;;;5103234;27;43436;-75
2023/01/18 08:37:19;;;;;;;2.30;2.20;;;16.90;64.00;;;;;;5100555;27;43885;-74
2023/01/18 08:39:47;;;;;;;2.50;2.40;;;16.80;64.00;;;;;;5095428;27;44222;-74
2023/01/18 08:42:15;;;;;;;2.47;2.37;;;16.80;64.00;;;;;;5097152;27;43402;-74
2023/01/18 08:44:43;;;;;;;2.60;2.40;;;16.80;64.20;;;;;;5105569;27;43516;-74
2023/01/18 08:47:11;;;;;;;2.40;2.30;;;16.70;64.30;;;;;;5099389;27;43943;-74
2023/01/18 08:49:39;;;;;;;2.53;2.43;;;16.70;64.30;;;;;;5103051;27;43933;-73
2023/01/18 08:52:09;;;;;;;2.67;2.47;;;16.70;64.30;;;;;;5102166;27;44061;-74
2023/01/18 08:54:39;;;;;;;2.20;2.10;;;16.70;64.40;;;;;;5080217;27;43534;-74
2023/01/18 08:57:08;;;;;;;2.43;2.33;;;16.70;64.30;;;;;;5099598;27;43756;-74
2023/01/18 08:59:36;;;;;;;2.33;2.23;;;16.70;64.40;;;;;;5078938;27;43377;-74
2023/01/18 09:02:04;;;;;;;2.37;2.27;;;16.70;64.40;;;;;;5100979;27;43956;-74
2023/01/18 09:04:33;;;;;;;2.20;2.10;;;16.70;64.60;;;;;;5102404;27;44026;-74
2023/01/18 09:07:01;;;;;;;2.20;2.10;;;16.70;64.50;;;;;;5098083;27;43976;-75
2023/01/18 09:09:30;;;;;;;2.30;2.20;;;16.70;64.50;;;;;;5098408;27;43509;-75
2023/01/18 09:11:59;;;;;;;2.60;2.40;;;16.70;64.50;;;;;;5102767;27;43957;-75
2023/01/18 09:14:27;;;;;;;2.50;2.40;;;16.70;64.50;;;;;;5094272;27;43732;-74
2023/01/18 09:16:55;;;;;;;2.60;2.40;;;16.70;64.50;;;;;;5096220;27;43900;-74
2023/01/18 09:19:23;;;;;;;2.40;2.30;;;16.70;64.70;;;;;;5084809;27;44805;-75
2023/01/18 09:21:51;;;;;;;1.90;1.90;;;16.70;64.90;;;;;;5102019;27;43397;-75
2023/01/18 09:24:19;;;;;;;2.50;2.40;;;16.80;64.60;;;;;;5100574;27;43981;-74
2023/01/18 09:26:50;;;;;;;2.50;2.40;;;16.90;64.10;;;;;;5099424;27;43995;-74
2023/01/18 09:29:19;;;;;;;2.30;2.20;;;16.90;63.80;;;;;;5095987;27;43430;-74
2023/01/18 09:31:47;;;;;;;2.30;2.20;;;16.90;63.90;;;;;;5086289;27;43362;-74
2023/01/18 09:34:17;;;;;;;2.57;2.47;;;16.90;63.90;;;;;;5099581;27;43524;-72
2023/01/18 09:36:49;;;;;;;2.50;2.40;;;16.90;64.20;;;;;;5085154;27;45303;-75
2023/01/18 09:39:17;;;;;;;2.50;2.40;;;16.90;64.00;;;;;;5097390;27;44004;-74
2023/01/18 09:41:47;;;;;;;2.40;2.30;;;16.80;64.00;;;;;;5096271;27;43421;-74
2023/01/18 09:44:20;;;;;;;2.00;1.90;;;16.80;64.80;;;;;;5100017;27;43681;-74
2023/01/18 09:46:49;;;;;;;2.13;2.03;;;16.80;64.20;;;;;;5095342;27;43763;-75
2023/01/18 09:49:23;;;;;;;2.33;2.23;;;16.80;64.30;;;;;;5087674;27;43695;-73
2023/01/18 09:51:56;;;;;;;2.10;2.00;;;16.80;64.60;;;;;;5075931;27;43924;-74
2023/01/18 09:54:31;;;;;;;2.10;2.07;;;16.70;64.30;;;;;;5103629;27;43432;-74
2023/01/18 09:57:01;;;;;;;2.63;2.53;;;16.70;64.40;;;;;;5100584;27;44015;-75
2023/01/18 09:59:32;;;;;;;2.43;2.33;;;16.80;64.50;;;;;;5106070;27;43967;-72
2023/01/18 10:02:02;;;;;;;2.30;2.20;;;16.70;64.40;;;;;;5097737;27;43415;-74
2023/01/18 10:04:33;;;;;;;2.13;2.10;;;16.70;64.50;;;;;;5101841;27;43368;-75
2023/01/18 10:07:02;;;;;;;2.10;2.00;;;16.70;64.60;;;;;;5080365;27;45712;-74
2023/01/18 10:09:31;;;;;;;2.23;2.13;;;16.70;64.50;;;;;;5085949;27;44317;-75
2023/01/18 10:12:00;;;;;;;2.13;2.07;;;16.70;64.60;;;;;;5098873;27;43398;-74
2023/01/18 10:14:37;;;;;;;2.43;2.20;;;16.70;64.50;;;;;;5077919;28;43519;-74
2023/01/18 10:17:10;;;;;;;2.20;2.10;;;16.70;64.60;;;;;;5103284;27;43601;-75
2023/01/18 10:19:38;;;;;;;2.30;2.20;;;16.70;64.60;;;;;;5101754;27;43518;-74
2023/01/18 10:22:08;;;;;;;2.37;2.27;;;16.70;64.60;;;;;;5100363;27;43362;-73
2023/01/18 10:24:43;;;;;;;2.50;2.30;;;16.70;64.90;;;;;;5100604;27;43608;-74
2023/01/18 10:27:35;;;;;;;2.30;2.20;;;16.70;64.70;;;;;;5096773;27;43896;-74
2023/01/18 10:30:17;;;;;;;2.07;1.97;;;16.80;64.40;;;;;;5105160;27;43568;-74
2023/01/18 10:32:48;;;;;;;2.43;2.33;;;16.90;63.90;;;;;;5093295;27;43474;-73
2023/01/18 10:35:22;;;;;;;2.07;2.07;;;16.90;63.70;;;;;;5097213;27;43413;-74
2023/01/18 10:37:50;;;;;;;2.23;2.13;;;16.90;63.70;;;;;;5084171;27;43654;-74
2023/01/18 10:40:18;;;;;;;2.03;2.03;;;16.90;64.00;;;;;;5068751;27;44248;-74
2023/01/18 10:42:47;;;;;;;2.33;2.23;;;16.90;64.00;;;;;;5083061;27;43403;-72
2023/01/18 10:45:19;;;;;;;1.93;1.90;;;16.90;63.90;;;;;;5099907;27;43438;-73
2023/01/18 10:47:47;;;;;;;2.10;2.00;;;16.90;63.90;;;;;;5102081;27;43892;-74
2023/01/18 10:50:16;;;;;;;2.40;2.30;;;16.80;63.90;;;;;;5109026;27;43394;-74
2023/01/18 10:52:44;;;;;;;2.03;1.97;;;16.80;64.00;;;;;;5100414;27;43485;-75
2023/01/18 10:55:15;;;;;;;2.50;2.40;;;16.80;64.10;;;;;;5084947;27;43452;-75
2023/01/18 10:57:44;;;;;;;2.47;2.37;;;16.80;64.20;;;;;;5109236;27;43955;-75
2023/01/18 11:00:21;;;;;;;2.23;2.13;;;16.80;64.20;;;;;;5106066;27;43464;-75
2023/01/18 11:02:50;;;;;;;2.20;2.10;;;16.80;64.20;;;;;;5104234;27;43501;-74
2023/01/18 11:05:26;;;;;;;2.23;2.20;;;16.80;64.30;;;;;;5100114;27;43424;-75
2023/01/18 11:08:13;;;;;;;2.20;2.10;;;16.80;64.30;;;;;;5100228;27;43938;-74
2023/01/18 11:10:42;;;;;;;2.07;1.97;;;16.70;64.30;;;;;;5094809;27;43825;-75
2023/01/18 11:13:26;;;;;;;2.00;2.00;;;16.70;64.60;;;;;;5089789;27;43398;-73
2023/01/18 11:16:05;;;;;;;2.00;2.00;;;16.80;64.50;;;;;;5078631;27;43359;-75
2023/01/18 11:18:33;;;;;;;2.13;2.13;;;16.90;64.10;;;;;;5103417;27;43764;-75
2023/01/18 11:21:01;;;;;;;2.20;2.10;;;16.90;63.90;;;;;;5100809;27;43388;-74
2023/01/18 11:23:31;;;;;;;2.03;1.93;;;16.90;63.90;;;;;;5101677;27;43345;-74
2023/01/18 11:26:00;;;;;;;1.93;1.93;;;16.90;63.90;;;;;;5099213;27;43428;-74
2023/01/18 11:28:30;;;;;;;2.17;2.07;;;16.80;64.10;;;;;;5100667;27;45296;-74
2023/01/18 11:31:00;;;;;;;2.30;2.20;;;16.80;63.90;;;;;;5087168;27;44499;-75
2023/01/18 11:33:29;;;;;;;2.00;1.90;;;16.80;64.40;;;;;;5098313;27;43305;-74
2023/01/18 11:35:59;;;;;;;1.70;1.70;;;16.80;64.00;;;;;;5086504;27;43461;-73
2023/01/18 11:38:28;;;;;;;1.90;1.90;;;16.80;64.00;;;;;;5100148;27;43984;-75
2023/01/18 11:41:15;;;;;;;1.97;1.90;;;16.80;64.10;;;;;;5087238;27;43498;-74
2023/01/18 11:43:51;;;;;;;2.00;1.90;;;16.80;64.30;;;;;;5095777;27;43412;-75
2023/01/18 11:46:38;;;;;;;2.40;2.30;;;16.80;64.20;;;;;;5082975;27;43571;-75
2023/01/18 11:49:23;;;;;;;1.90;1.90;;;16.80;64.30;;;;;;5101112;27;43777;-75
2023/01/18 11:51:52;;;;;;;1.80;1.80;;;16.80;64.20;;;;;;5090364;27;43475;-75
2023/01/18 11:54:25;;;;;;;1.90;1.90;;;16.80;64.30;;;;;;5102287;27;43954;-75
2023/01/18 11:56:58;;;;;;;1.87;1.87;;;16.70;64.20;;;;;;5092679;27;43442;-74
2023/01/18 11:59:29;;;;;;;2.03;2.00;;;16.70;64.30;;;;;;5096634;27;43912;-75
2023/01/18 12:02:20;;;;;;;2.07;1.97;;;16.80;64.60;;;;;;5087577;27;45034;-75
2023/01/18 12:04:57;;;;;;;1.87;1.87;;;16.80;64.40;;;;;;5079353;28;43380;-75
2023/01/18 12:07:32;;;;;;;2.07;1.97;;;16.90;63.80;;;;;;5094283;27;43414;-75
2023/01/18 12:10:01;;;;;;;1.90;1.90;;;16.90;63.60;;;;;;5070109;27;45450;-74
2023/01/18 12:12:37;;;;;;;1.90;1.90;;;16.90;63.70;;;;;;5106922;27;43463;-74
2023/01/18 12:15:22;;;;;;;1.90;1.90;;;16.90;63.80;;;;;;5102367;27;43420;-73
2023/01/18 12:17:57;;;;;;;2.00;1.90;;;16.90;63.90;;;;;;5080599;28;44012;-75
2023/01/18 12:20:44;;;;;;;1.90;1.90;;;16.90;63.90;;;;;;5075155;27;45842;-74
2023/01/18 12:23:24;;;;;;;1.80;1.70;;;16.80;63.80;;;;;;5099463;27;43406;-74
2023/01/18 12:26:08;;;;;;;1.90;1.90;;;16.80;63.90;;;;;;5086155;27;43874;-74
2023/01/18 12:28:50;;;;;;;1.87;1.87;;;16.80;64.00;;;;;;5106298;27;43415;-74
2023/01/18 12:31:22;;;;;;;1.63;1.63;;;16.80;64.30;;;;;;5077395;27;46198;-74
2023/01/18 12:33:53;;;;;;;1.80;1.80;;;16.80;64.20;;;;;;5085637;27;44957;-73
2023/01/18 12:36:45;;;;;;;2.03;2.00;;;16.80;64.20;;;;;;5094034;27;43379;-75
2023/01/18 12:39:21;;;;;;;2.13;2.03;;;16.80;64.30;;;;;;5101235;27;44038;-74
2023/01/18 12:41:54;;;;;;;1.90;1.80;;;16.80;64.30;;;;;;5082610;27;45569;-74
2023/01/18 12:44:37;;;;;;;2.17;2.03;;;16.80;64.30;;;;;;5105030;27;43892;-74
2023/01/18 12:47:16;;;;;;;2.00;1.90;;;16.70;64.20;;;;;;5087167;27;43442;-75
2023/01/18 12:49:46;;;;;;;1.97;1.90;;;16.70;65.00;;;;;;5101865;27;43412;-74
2023/01/18 12:52:15;;;;;;;2.00;2.00;;;16.70;64.30;;;;;;5104625;27;44002;-75
2023/01/18 12:54:47;;;;;;;1.83;1.83;;;16.70;64.30;;;;;;5078389;28;45146;-75
2023/01/18 12:57:15;;;;;;;1.80;1.80;;;16.70;64.20;;;;;;5099077;27;43414;-74
2023/01/18 12:59:46;;;;;;;1.80;1.80;;;16.70;64.20;;;;;;5081204;28;43535;-75
2023/01/18 13:02:21;;;;;;;2.20;2.10;;;16.70;64.30;;;;;;5104951;27;43837;-73
2023/01/18 13:04:52;;;;;;;2.13;2.03;;;16.70;64.50;;;;;;5081686;28;44256;-75
2023/01/18 13:07:27;;;;;;;2.37;2.27;;;16.70;64.50;;;;;;5100743;27;43399;-73
2023/01/18 13:09:54;;;;;;;2.00;2.00;;;16.80;64.30;;;;;;5093450;27;43961;-74
2023/01/18 13:12:23;;;;;;;1.90;1.90;;;16.90;63.80;;;;;;5091686;27;45623;-72
2023/01/18 13:14:52;;;;;;;1.90;1.90;;;16.90;63.70;;;;;;5083602;27;45002;-74
2023/01/18 13:17:22;;;;;;;2.30;2.20;;;16.90;63.60;;;;;;5102864;27;43357;-74
2023/01/18 13:19:53;;;;;;;1.93;1.93;;;16.90;63.70;;;;;;5105023;27;43432;-74
2023/01/18 13:22:25;;;;;;;1.97;1.87;;;16.80;63.70;;;;;;5082079;27;46173;-75
2023/01/18 13:25:07;;;;;;;1.80;1.80;;;16.80;63.70;;;;;;5077952;27;44641;-73
2023/01/18 13:27:35;;;;;;;2.43;2.33;;;16.80;63.70;;;;;;5102417;27;43502;-75
2023/01/18 13:30:08;;;;;;;2.10;2.00;;;16.80;63.90;;;;;;5079994;27;43578;-75
2023/01/18 13:32:36;;;;;;;1.80;1.80;;;16.80;64.00;;;;;;5101244;27;43910;-74
2023/01/18 13:35:13;;;;;;;2.13;2.13;;;16.80;64.00;;;;;;5081714;27;45199;-74